Aspen Hill, MD

11:30 AM EST on November 21, 2014 (GMT -0500)
Parker Ave, Wheaton, MD | Change Station
CLOSE
Current Station
Personal Weather Station
Location: Wheaton, Silver Spring, MD
Elevation: 390 ft
Nearby Weather Stations

Elev 390 ft 39.05 °N, 77.06 °W | Updated 4 seconds ago

Partly Cloudy
Partly Cloudy
33.4 °F
Feels Like 33 °F
N
2.5
Wind Variable Wind from West
Gusts 12.5 mph

Today
High -- | Low -- °F
--% Chance of Precip.
Yesterday
High -- | Low -- °F
Precip. -- in
6:57 AM 4:50 PM
Waning Crescent, 1% visible
Pressure 30.46 in
Visibility 10.0 miles
Clouds Clear
Windchill 33 °F
Dew Point 10 °F
Humidity 38%
Rainfall 0.00 in
Snow Depth Not available.
UV 3 out of 12
Pollen .10 out of 12
Air Quality Not available.
Flu Activity Not available.
METAR KGAI 211615Z 30012G18KT 10SM CLR M01/M13 A3046 RMK AO1

More Conditions Fewer Conditions

Pressure 30.46 in
Visibility 10.0 miles
Clouds Clear
Windchill 33 °F
Dew Point 10 °F
Humidity 38%
Rainfall 0.00 in
Snow Depth Not available.
UV 3 out of 12
Pollen .10 out of 12
Air Quality Not available.
Flu Activity Not available.
METAR KGAI 211615Z 30012G18KT 10SM CLR M01/M13 A3046 RMK AO1

More Conditions Fewer Conditions

10-Day Weather Forecast

Almanac

Astronomy

Nov. 21, 2014 Rise Set
Actual Time
Civil Twilight
Nautical Twilight
Astronomical Twilight
Moon
Length of Visible Light
Length of Day
Tomorrow will be .
, % of the Moon is Illuminated

Today's Extremes

State Highs State Lows

Community

WunderPhotos

Upload Photos

1,772,685 photos uploaded!

WunderBlogs® & News

Nearby

Air Quality

  Air Quality AQ Index Pollutant
Not available.

Snow Depth

Station Depth Elevation

Earthquake Activity

City Distance Mag. Time & Date
Minimum magnitude displayed is 2.5.

Coastal Water Temperatures

Place Temperature

Nearby Weather Stations